Time;durP1;ratioP1;P1;durP2;ratioP2;P2;SDS_P1;SDS_P2;PMS_P1;PMS_P2;Temp;Humidity;BMP_temperature;BMP_pressure;BME280_temperature;BME280_humidity;BME280_pressure;Samples;Min_cycle;Max_cycle;Signal;HPM_P1;HPM_P2
2022/04/14 00:02:10;;;;;;;38.53;33.42;;;28.00;99.90;;;;;;1871107;77;21091;-82
2022/04/14 00:04:43;;;;;;;39.23;34.90;;;28.10;99.90;;;;;;1826756;78;21112;-82
2022/04/14 00:07:14;;;;;;;39.58;35.10;;;27.90;99.90;;;;;;1826658;78;21149;-82
2022/04/14 00:09:47;;;;;;;40.10;34.03;;;28.10;99.90;;;;;;1826944;78;21068;-82
2022/04/14 00:12:21;;;;;;;42.73;35.70;;;28.00;99.90;;;;;;1826631;78;21174;-82
2022/04/14 00:14:52;;;;;;;41.65;36.25;;;28.10;99.90;;;;;;1838257;77;21175;-82
2022/04/14 00:17:23;;;;;;;40.45;36.05;;;28.20;99.90;;;;;;1872167;77;21091;-83
2022/04/14 00:19:54;;;;;;;41.83;36.33;;;28.40;99.90;;;;;;1862105;77;21102;-81
2022/04/14 00:22:25;;;;;;;45.92;36.73;;;28.20;99.90;;;;;;1857622;77;21166;-81
2022/04/14 00:24:57;;;;;;;40.78;35.50;;;28.50;99.90;;;;;;1857461;77;21112;-82
2022/04/14 00:27:28;;;;;;;40.98;36.30;;;28.50;99.90;;;;;;1866637;76;21131;-82
2022/04/14 00:30:01;;;;;;;40.78;36.30;;;28.40;99.90;;;;;;1855891;76;21204;-82
2022/04/14 00:32:32;;;;;;;40.92;35.70;;;28.70;99.90;;;;;;1844513;77;21122;-82
2022/04/14 00:35:04;;;;;;;39.83;35.58;;;28.70;99.90;;;;;;1855912;77;21174;-82
2022/04/14 00:37:35;;;;;;;41.05;36.10;;;28.80;99.90;;;;;;1833678;77;21504;-83
2022/04/14 00:40:06;;;;;;;43.17;35.90;;;28.70;99.90;;;;;;1856279;77;21123;-82
2022/04/14 00:42:37;;;;;;;38.75;34.03;;;28.60;99.90;;;;;;1855484;77;21127;-82
2022/04/14 00:45:09;;;;;;;37.55;33.45;;;28.90;99.90;;;;;;1855766;77;21157;-82
2022/04/14 00:47:41;;;;;;;35.63;31.75;;;29.00;99.90;;;;;;1823893;78;21095;-82
2022/04/14 00:50:13;;;;;;;40.88;35.20;;;28.90;99.90;;;;;;1905041;75;21519;-83
2022/04/14 00:52:46;;;;;;;45.98;35.03;;;29.10;99.90;;;;;;1868542;75;21158;-82
2022/04/14 00:55:18;;;;;;;38.63;34.53;;;29.20;99.90;;;;;;1867020;77;22147;-81
2022/04/14 00:57:51;;;;;;;39.00;32.25;;;29.10;99.90;;;;;;1893240;75;21525;-81
2022/04/14 01:00:22;;;;;;;33.65;30.25;;;29.30;99.90;;;;;;1898381;75;21257;-81
2022/04/14 01:02:55;;;;;;;35.63;28.65;;;29.30;99.90;;;;;;1883003;75;21152;-81
2022/04/14 01:05:28;;;;;;;32.53;27.65;;;29.10;99.90;;;;;;1901188;75;21089;-81
2022/04/14 01:08:02;;;;;;;32.85;29.30;;;29.20;99.90;;;;;;1901125;75;21505;-82
2022/04/14 01:10:34;;;;;;;32.83;29.18;;;29.40;99.90;;;;;;1901398;75;21150;-81
2022/04/14 01:13:05;;;;;;;33.23;29.30;;;29.50;99.90;;;;;;1897239;75;21073;-82
2022/04/14 01:15:36;;;;;;;32.45;28.75;;;29.20;99.90;;;;;;1895555;75;21135;-82
2022/04/14 01:18:07;;;;;;;31.97;28.45;;;29.50;99.90;;;;;;1901650;75;21089;-82
2022/04/14 01:20:41;;;;;;;34.75;30.97;;;29.30;99.90;;;;;;1894540;75;21157;-82
2022/04/14 01:23:14;;;;;;;36.30;29.85;;;29.50;99.90;;;;;;1872333;77;21492;-82
2022/04/14 01:25:45;;;;;;;33.02;29.48;;;29.50;99.90;;;;;;1899202;75;21078;-82
2022/04/14 01:28:16;;;;;;;36.70;30.62;;;29.40;99.90;;;;;;1900817;75;21156;-82
2022/04/14 01:30:48;;;;;;;34.40;30.12;;;29.50;99.90;;;;;;1898329;75;21159;-82
2022/04/14 01:33:19;;;;;;;35.80;31.65;;;29.80;99.90;;;;;;1876466;75;21089;-82
2022/04/14 01:35:50;;;;;;;34.70;30.77;;;29.60;99.90;;;;;;1901628;75;21104;-82
2022/04/14 01:38:21;;;;;;;32.30;28.85;;;29.70;99.90;;;;;;1901681;75;21097;-81
2022/04/14 01:40:52;;;;;;;31.87;28.40;;;29.60;99.90;;;;;;1901136;75;21054;-81
2022/04/14 01:43:23;;;;;;;35.38;30.10;;;29.70;99.90;;;;;;1901602;75;21092;-81
2022/04/14 01:45:54;;;;;;;32.00;28.60;;;30.00;99.90;;;;;;1901579;75;21085;-82
2022/04/14 01:48:27;;;;;;;32.45;29.10;;;30.00;99.90;;;;;;1897103;75;21170;-83
2022/04/14 01:50:58;;;;;;;32.85;29.37;;;29.90;99.90;;;;;;1872406;75;21145;-81
2022/04/14 01:53:29;;;;;;;34.00;29.45;;;29.90;99.90;;;;;;1841165;77;21177;-81
2022/04/14 01:56:00;;;;;;;32.30;28.52;;;30.00;99.90;;;;;;1843052;77;21159;-82
2022/04/14 01:58:31;;;;;;;34.43;29.48;;;30.20;99.90;;;;;;1847147;77;21547;-82
2022/04/14 02:01:10;;;;;;;33.08;28.87;;;30.20;99.90;;;;;;1856370;77;21183;-82
2022/04/14 02:03:40;;;;;;;32.35;28.42;;;30.10;99.90;;;;;;1859266;77;21233;-81
2022/04/14 02:06:12;;;;;;;30.25;27.07;;;30.30;99.90;;;;;;1857506;77;21217;-81
2022/04/14 02:08:44;;;;;;;32.33;28.92;;;30.10;99.90;;;;;;1857113;77;21166;-82
2022/04/14 02:11:15;;;;;;;33.33;28.12;;;30.20;99.90;;;;;;1856840;77;21138;-82
2022/04/14 02:13:46;;;;;;;30.88;26.48;;;30.40;99.90;;;;;;1856675;77;21508;-82
2022/04/14 02:16:17;;;;;;;29.85;26.68;;;30.70;99.90;;;;;;1826815;77;21092;-82
2022/04/14 02:18:53;;;;;;;30.17;26.97;;;30.50;99.90;;;;;;1863848;77;21181;-82
2022/04/14 02:21:26;;;;;;;30.17;26.30;;;30.90;99.90;;;;;;1857923;77;21096;-82
2022/04/14 02:23:59;;;;;;;28.65;25.45;;;30.80;99.90;;;;;;1859025;77;21056;-84
2022/04/14 02:26:30;;;;;;;28.73;24.85;;;31.00;99.90;;;;;;1852653;77;21067;-82
2022/04/14 02:29:01;;;;;;;28.65;25.75;;;30.90;99.90;;;;;;1848101;77;21163;-83
2022/04/14 02:31:35;;;;;;;28.60;25.62;;;31.20;99.90;;;;;;1857449;77;21061;-83
2022/04/14 02:34:06;;;;;;;29.20;26.30;;;31.30;99.90;;;;;;1847713;76;21305;-83
2022/04/14 02:36:37;;;;;;;28.77;25.82;;;31.50;99.90;;;;;;1850885;77;21096;-83
2022/04/14 02:39:09;;;;;;;28.02;25.12;;;31.40;99.90;;;;;;1850363;77;21142;-83
2022/04/14 02:41:40;;;;;;;27.73;24.82;;;31.50;99.90;;;;;;1845784;77;21089;-83
2022/04/14 02:44:11;;;;;;;27.82;24.80;;;31.60;99.30;;;;;;1841073;77;21171;-83
2022/04/14 02:46:42;;;;;;;33.95;25.70;;;31.70;98.20;;;;;;1840985;77;21150;-84
2022/04/14 02:49:14;;;;;;;29.92;26.05;;;;;;;;;;1842382;77;21661;-81
2022/04/14 02:51:45;;;;;;;27.80;24.98;;;32.10;99.00;;;;;;1902209;75;21536;-82
2022/04/14 02:54:16;;;;;;;28.38;25.17;;;32.20;99.90;;;;;;1913384;75;21130;-82
2022/04/14 02:56:47;;;;;;;27.35;24.52;;;;;;;;;;1906346;75;21182;-82
2022/04/14 02:59:20;;;;;;;28.75;25.77;;;;;;;;;;1917733;75;21052;-83
2022/04/14 03:01:53;;;;;;;28.45;25.32;;;;;;;;;;1895993;75;21132;-83
2022/04/14 03:04:26;;;;;;;27.70;25.00;;;;;;;;;;1913299;75;21072;-83
2022/04/14 03:06:59;;;;;;;28.77;25.43;;;32.20;71.70;;;;;;1882628;75;21076;-84
2022/04/14 03:09:30;;;;;;;29.27;25.27;;;32.20;72.40;;;;;;1880961;75;21148;-84
2022/04/14 03:12:11;;;;;;;27.65;24.77;;;32.30;71.70;;;;;;1835475;78;21061;-83
2022/04/14 03:14:42;;;;;;;28.05;25.25;;;32.40;71.30;;;;;;1878083;75;21207;-83
2022/04/14 03:17:13;;;;;;;32.38;25.02;;;32.50;71.10;;;;;;1889808;75;21156;-83
2022/04/14 03:19:44;;;;;;;27.32;24.47;;;32.50;70.80;;;;;;1855492;75;21090;-83
2022/04/14 03:22:15;;;;;;;32.45;26.40;;;32.60;70.90;;;;;;1853949;76;21174;-83
2022/04/14 03:24:46;;;;;;;27.65;24.63;;;32.60;71.10;;;;;;1867316;76;21084;-82
2022/04/14 03:27:20;;;;;;;27.27;24.45;;;32.70;70.90;;;;;;1861802;76;21441;-82
2022/04/14 03:29:51;;;;;;;27.42;24.47;;;32.70;70.00;;;;;;1896487;75;21173;-84
2022/04/14 03:32:23;;;;;;;27.65;24.75;;;32.60;70.50;;;;;;1866441;75;21135;-84
2022/04/14 03:34:54;;;;;;;27.00;24.32;;;32.70;70.60;;;;;;1856659;77;21197;-84
2022/04/14 03:37:25;;;;;;;28.55;25.40;;;32.70;70.10;;;;;;1856336;76;21160;-83
2022/04/14 03:39:59;;;;;;;30.90;24.55;;;32.80;69.80;;;;;;1868159;76;21129;-83
2022/04/14 03:42:37;;;;;;;28.35;25.43;;;32.80;70.00;;;;;;1843114;76;21455;-83
2022/04/14 03:45:08;;;;;;;28.17;25.17;;;32.90;69.50;;;;;;1875467;75;21121;-83
2022/04/14 03:47:39;;;;;;;27.17;24.37;;;33.00;69.60;;;;;;1909243;75;21052;-83
2022/04/14 03:50:11;;;;;;;29.18;26.07;;;33.00;70.00;;;;;;1906179;75;21115;-84
2022/04/14 03:52:42;;;;;;;30.50;26.33;;;33.00;70.80;;;;;;1898418;74;21112;-84
2022/04/14 03:55:12;;;;;;;28.02;25.02;;;33.00;69.10;;;;;;1884832;75;21382;-84
2022/04/14 03:57:45;;;;;;;29.77;24.57;;;33.10;68.80;;;;;;1886267;75;21174;-84
2022/04/14 04:00:16;;;;;;;28.07;24.25;;;33.20;68.80;;;;;;1892802;75;21081;-84
2022/04/14 04:02:47;;;;;;;28.70;25.62;;;33.30;68.60;;;;;;1890157;75;21118;-83
2022/04/14 04:05:18;;;;;;;29.30;25.90;;;33.40;69.50;;;;;;1804263;79;21095;-83
2022/04/14 04:07:49;;;;;;;28.02;25.08;;;33.60;67.80;;;;;;1886466;75;21159;-83
2022/04/14 04:10:23;;;;;;;27.95;24.40;;;33.70;66.40;;;;;;1893452;75;21123;-83
2022/04/14 04:12:54;;;;;;;28.92;25.70;;;33.80;64.70;;;;;;1891482;75;21139;-83
2022/04/14 04:15:25;;;;;;;27.05;24.20;;;33.90;65.00;;;;;;1887449;74;21221;-84
2022/04/14 04:17:56;;;;;;;28.35;25.43;;;33.90;64.20;;;;;;1896299;75;21083;-84
2022/04/14 04:20:27;;;;;;;27.45;24.63;;;33.90;63.80;;;;;;1894902;75;21084;-83
2022/04/14 04:22:58;;;;;;;29.15;25.80;;;33.90;62.70;;;;;;1876912;75;21136;-82
2022/04/14 04:25:29;;;;;;;28.92;25.55;;;33.80;63.50;;;;;;1906068;75;21543;-84
2022/04/14 04:28:01;;;;;;;28.90;26.00;;;33.80;63.80;;;;;;1893692;75;21081;-83
2022/04/14 04:30:32;;;;;;;28.42;24.25;;;33.80;63.70;;;;;;1878772;75;21631;-83
2022/04/14 04:33:04;;;;;;;28.12;23.75;;;33.80;63.40;;;;;;1908758;75;21119;-83
2022/04/14 04:35:35;;;;;;;27.62;24.72;;;34.00;63.80;;;;;;1880979;75;21080;-83
2022/04/14 04:38:08;;;;;;;29.95;24.75;;;34.00;62.70;;;;;;1889176;75;21056;-83
2022/04/14 04:40:39;;;;;;;27.55;24.72;;;34.10;62.00;;;;;;1882547;75;21135;-83
2022/04/14 04:43:10;;;;;;;27.10;24.27;;;34.00;63.10;;;;;;1888593;75;21080;-83
2022/04/14 04:45:41;;;;;;;33.18;26.55;;;34.00;63.20;;;;;;1810179;78;21191;-83
2022/04/14 04:48:12;;;;;;;27.75;25.00;;;34.00;65.00;;;;;;1896816;75;21160;-83
2022/04/14 04:50:43;;;;;;;29.92;26.65;;;34.10;65.30;;;;;;1854629;77;21190;-84
2022/04/14 04:53:14;;;;;;;29.63;25.70;;;34.10;64.70;;;;;;1862893;75;21631;-83
2022/04/14 04:55:45;;;;;;;28.12;25.12;;;34.30;64.00;;;;;;1850176;77;21139;-83
2022/04/14 04:58:16;;;;;;;26.95;23.95;;;34.40;63.70;;;;;;1856844;75;21159;-83
2022/04/14 05:00:47;;;;;;;27.27;24.45;;;34.40;63.70;;;;;;1826476;78;21096;-83
2022/04/14 05:03:18;;;;;;;27.95;25.15;;;34.40;64.10;;;;;;1870546;77;21555;-82
2022/04/14 05:05:50;;;;;;;26.77;24.10;;;34.40;62.80;;;;;;1871603;76;21175;-82
2022/04/14 05:08:21;;;;;;;30.15;25.92;;;34.50;63.50;;;;;;1869426;75;21158;-83
2022/04/14 05:10:57;;;;;;;27.53;24.60;;;34.50;62.80;;;;;;1864140;77;21138;-82
2022/04/14 05:13:30;;;;;;;26.87;24.00;;;34.40;64.20;;;;;;1869390;75;21085;-84
2022/04/14 05:16:02;;;;;;;28.40;25.45;;;34.30;62.80;;;;;;1862347;76;21087;-85
2022/04/14 05:18:34;;;;;;;26.42;23.83;;;34.20;62.80;;;;;;1839313;78;21168;-86
2022/04/14 05:21:05;;;;;;;27.60;24.90;;;34.20;62.80;;;;;;1865916;77;21150;-84
2022/04/14 05:23:36;;;;;;;27.70;24.77;;;34.20;62.70;;;;;;1860848;76;21065;-83
2022/04/14 05:26:08;;;;;;;27.32;24.52;;;34.10;63.30;;;;;;1862157;77;21084;-84
2022/04/14 05:28:39;;;;;;;30.37;25.10;;;34.10;63.20;;;;;;1824991;78;21221;-84
2022/04/14 05:31:10;;;;;;;27.35;24.45;;;34.10;63.40;;;;;;1867153;75;21076;-83
2022/04/14 05:33:41;;;;;;;27.73;24.72;;;34.20;62.90;;;;;;1870122;75;21186;-83
2022/04/14 05:36:15;;;;;;;28.67;23.95;;;34.30;63.10;;;;;;1854351;77;21048;-82
2022/04/14 05:38:45;;;;;;;26.82;24.15;;;34.40;62.20;;;;;;1855016;77;21155;-84
2022/04/14 05:41:16;;;;;;;30.72;25.08;;;34.50;62.20;;;;;;1866769;77;21087;-84
2022/04/14 05:43:49;;;;;;;26.20;23.60;;;34.70;61.60;;;;;;1857368;76;21261;-84
2022/04/14 05:46:20;;;;;;;27.25;23.95;;;34.70;62.20;;;;;;1857324;77;21097;-83
2022/04/14 05:48:51;;;;;;;27.67;23.90;;;34.80;61.00;;;;;;1864079;75;21239;-84
2022/04/14 05:51:22;;;;;;;28.17;25.48;;;34.80;60.90;;;;;;1860041;77;21162;-84
2022/04/14 05:53:53;;;;;;;26.93;24.18;;;34.90;61.00;;;;;;1886537;75;21226;-85
2022/04/14 05:56:24;;;;;;;28.10;25.10;;;34.90;60.50;;;;;;1873863;75;21144;-84
2022/04/14 05:58:55;;;;;;;27.48;24.63;;;35.00;61.10;;;;;;1880307;75;21093;-84
2022/04/14 06:01:26;;;;;;;28.73;23.52;;;35.00;60.30;;;;;;1873850;75;21288;-83
2022/04/14 06:03:57;;;;;;;26.57;23.87;;;35.00;60.20;;;;;;1874703;75;21100;-84
2022/04/14 06:06:28;;;;;;;25.92;23.32;;;35.00;60.20;;;;;;1891706;75;21065;-84
2022/04/14 06:08:59;;;;;;;27.25;24.43;;;35.00;60.40;;;;;;1885382;74;21250;-84
2022/04/14 06:11:30;;;;;;;28.25;24.47;;;35.00;60.40;;;;;;1898568;75;21195;-84
2022/04/14 06:14:01;;;;;;;26.75;23.83;;;35.00;59.50;;;;;;1889877;75;21160;-84
2022/04/14 06:16:32;;;;;;;27.93;24.80;;;35.00;60.40;;;;;;1866063;76;21097;-85
2022/04/14 06:19:03;;;;;;;28.00;25.20;;;35.10;59.70;;;;;;1873830;75;21073;-84
2022/04/14 06:21:34;;;;;;;25.72;23.05;;;35.20;59.50;;;;;;1883247;75;21560;-85
2022/04/14 06:24:07;;;;;;;29.72;24.65;;;35.30;58.90;;;;;;1879369;75;21187;-84
2022/04/14 06:26:38;;;;;;;28.77;24.50;;;35.40;58.60;;;;;;1879666;75;21200;-83
2022/04/14 06:29:09;;;;;;;30.30;25.30;;;35.40;59.60;;;;;;1875038;75;21073;-84
2022/04/14 06:31:40;;;;;;;28.23;25.20;;;35.50;58.20;;;;;;1902248;75;21151;-84
2022/04/14 06:34:12;;;;;;;26.33;23.73;;;35.50;57.90;;;;;;1900948;75;21140;-84
2022/04/14 06:36:43;;;;;;;27.67;24.20;;;35.40;57.70;;;;;;1890894;75;21143;-84
2022/04/14 06:39:14;;;;;;;27.25;24.32;;;35.50;57.80;;;;;;1891284;75;21156;-85
2022/04/14 06:41:49;;;;;;;27.17;24.18;;;35.50;58.70;;;;;;1892462;75;21525;-83
2022/04/14 06:44:21;;;;;;;25.75;23.15;;;35.60;59.70;;;;;;1902134;75;21257;-86
2022/04/14 06:46:56;;;;;;;26.60;24.00;;;35.70;60.00;;;;;;1896017;75;21138;-85
2022/04/14 06:49:33;;;;;;;26.55;23.45;;;35.60;59.80;;;;;;1903779;75;21092;-85
2022/04/14 06:52:09;;;;;;;24.57;22.05;;;35.70;59.80;;;;;;1847392;76;21139;-85
2022/04/14 06:54:40;;;;;;;26.65;24.05;;;35.50;60.10;;;;;;1903456;75;21163;-83
2022/04/14 06:57:15;;;;;;;27.15;23.47;;;35.50;60.00;;;;;;1912065;74;21112;-85
2022/04/14 06:59:47;;;;;;;30.12;23.77;;;35.50;60.20;;;;;;1912521;74;21100;-85
2022/04/14 07:02:20;;;;;;;26.85;24.07;;;35.50;60.50;;;;;;1913580;74;21158;-85
2022/04/14 07:04:51;;;;;;;29.80;24.85;;;35.50;60.40;;;;;;1864782;76;21127;-85
2022/04/14 07:07:22;;;;;;;26.85;24.20;;;35.40;62.00;;;;;;1899012;75;21147;-84
2022/04/14 07:09:53;;;;;;;27.37;23.83;;;35.50;62.20;;;;;;1892399;75;21198;-84
2022/04/14 07:12:37;;;;;;;;;;;;;;;;;;;;;
2022/04/14 07:15:03;;;;;;;26.62;23.77;;;35.40;62.30;;;;;;1907734;75;21236;-84
2022/04/14 07:17:35;;;;;;;26.27;23.70;;;35.40;62.20;;;;;;1902144;75;21084;-84
2022/04/14 07:20:11;;;;;;;27.10;23.80;;;35.40;63.10;;;;;;1905106;75;21077;-83
2022/04/14 07:22:43;;;;;;;27.95;24.95;;;35.40;61.90;;;;;;1889086;75;21048;-85
2022/04/14 07:25:15;;;;;;;25.52;22.85;;;35.40;62.10;;;;;;1898984;75;21116;-83
2022/04/14 07:27:46;;;;;;;26.23;23.67;;;35.30;62.00;;;;;;1875844;75;21547;-83
2022/04/14 07:30:18;;;;;;;27.60;23.57;;;35.30;61.70;;;;;;1895657;75;21064;-83
2022/04/14 07:32:49;;;;;;;28.35;23.92;;;35.20;62.30;;;;;;1877803;76;21126;-83
2022/04/14 07:35:22;;;;;;;26.70;23.87;;;35.20;62.20;;;;;;1895059;75;21096;-83
2022/04/14 07:37:56;;;;;;;27.67;23.12;;;35.20;62.20;;;;;;1911484;75;21066;-83
2022/04/14 07:40:29;;;;;;;24.95;22.42;;;35.30;61.70;;;;;;1900761;75;21540;-84
2022/04/14 07:43:01;;;;;;;25.72;23.02;;;35.30;61.30;;;;;;1885917;75;21124;-82
2022/04/14 07:45:33;;;;;;;25.37;22.75;;;35.20;61.50;;;;;;1898663;75;21505;-82
2022/04/14 07:48:05;;;;;;;25.57;22.45;;;35.20;61.00;;;;;;1890338;75;21142;-83
2022/04/14 07:50:39;;;;;;;24.90;22.30;;;35.10;61.20;;;;;;1904248;75;21112;-84
2022/04/14 07:53:10;;;;;;;24.98;22.37;;;35.00;60.90;;;;;;1890883;75;21088;-83
2022/04/14 07:55:42;;;;;;;27.77;23.42;;;34.90;61.30;;;;;;1904257;75;21085;-83
2022/04/14 07:58:12;;;;;;;25.17;22.60;;;34.90;62.30;;;;;;1895113;75;21077;-83
2022/04/14 08:00:45;;;;;;;26.15;23.52;;;35.00;60.80;;;;;;1913259;75;21146;-85
2022/04/14 08:03:16;;;;;;;26.30;23.85;;;35.00;60.40;;;;;;1912387;75;21136;-84
2022/04/14 08:05:49;;;;;;;25.10;22.60;;;35.00;60.10;;;;;;1906465;75;21081;-84
2022/04/14 08:08:23;;;;;;;27.95;23.40;;;35.00;59.80;;;;;;1911934;75;21115;-82
2022/04/14 08:11:01;;;;;;;26.48;23.77;;;35.00;59.70;;;;;;1904284;75;21594;-83
2022/04/14 08:13:30;;;;;;;25.02;22.35;;;35.10;59.60;;;;;;1913474;75;21108;-83
2022/04/14 08:16:03;;;;;;;25.27;22.40;;;35.10;59.90;;;;;;1883734;75;21181;-83
2022/04/14 08:18:35;;;;;;;26.68;22.58;;;35.10;59.50;;;;;;1911116;75;21080;-83
2022/04/14 08:21:07;;;;;;;24.25;21.85;;;35.10;59.00;;;;;;1879642;75;21112;-82
2022/04/14 08:23:41;;;;;;;24.77;21.90;;;35.10;59.00;;;;;;1889759;75;21138;-85
2022/04/14 08:26:14;;;;;;;24.23;21.62;;;35.10;58.80;;;;;;1911696;75;21128;-83
2022/04/14 08:28:47;;;;;;;23.15;20.40;;;35.10;59.20;;;;;;1857096;76;21095;-84
2022/04/14 08:31:18;;;;;;;25.50;22.75;;;35.20;58.60;;;;;;1903587;75;21148;-82
2022/04/14 08:33:51;;;;;;;26.00;23.25;;;35.20;58.30;;;;;;1894464;75;21080;-83
2022/04/14 08:36:40;;;;;;;25.85;23.22;;;35.10;58.20;;;;;;1886004;75;21201;-82
2022/04/14 08:39:03;;;;;;;23.95;21.45;;;35.10;58.70;;;;;;1884387;75;21154;-81
2022/04/14 08:41:38;;;;;;;24.30;21.70;;;35.10;58.30;;;;;;1909392;75;21087;-82
2022/04/14 08:44:10;;;;;;;24.18;21.70;;;35.20;58.30;;;;;;1897034;75;21131;-83
2022/04/14 08:46:42;;;;;;;27.02;22.07;;;35.20;57.80;;;;;;1901263;74;21120;-83
2022/04/14 08:49:14;;;;;;;24.70;22.17;;;35.10;58.10;;;;;;1899676;74;21084;-83
2022/04/14 08:51:47;;;;;;;25.77;21.15;;;35.10;58.30;;;;;;1903467;75;21163;-84
2022/04/14 08:54:20;;;;;;;24.70;21.23;;;35.10;57.30;;;;;;1894311;75;21169;-84
2022/04/14 08:56:58;;;;;;;23.32;20.92;;;35.00;57.50;;;;;;1878869;74;21408;-85
2022/04/14 08:59:27;;;;;;;24.00;21.60;;;35.00;57.20;;;;;;1869954;74;21045;-83
2022/04/14 09:02:09;;;;;;;24.12;21.62;;;35.00;57.60;;;;;;1868872;74;21209;-84
2022/04/14 09:04:41;;;;;;;24.20;21.80;;;34.90;57.90;;;;;;1782327;78;21228;-83
2022/04/14 09:07:12;;;;;;;29.12;21.57;;;34.80;57.60;;;;;;1791961;79;21264;-82
2022/04/14 09:09:45;;;;;;;25.88;22.85;;;34.70;58.10;;;;;;1793114;80;21119;-84
2022/04/14 09:12:18;;;;;;;24.95;22.17;;;34.70;57.90;;;;;;1788699;79;21155;-83
2022/04/14 09:14:50;;;;;;;25.65;22.42;;;34.60;58.10;;;;;;1763936;80;21136;-82
2022/04/14 09:17:24;;;;;;;24.25;21.77;;;34.50;58.10;;;;;;1786852;79;21163;-83
2022/04/14 09:19:55;;;;;;;27.48;23.22;;;34.40;58.60;;;;;;1791084;80;21158;-82
2022/04/14 09:22:26;;;;;;;27.22;23.18;;;34.30;58.70;;;;;;1794712;79;21191;-82
2022/04/14 09:24:57;;;;;;;28.73;23.90;;;34.30;59.20;;;;;;1804732;78;21147;-83
2022/04/14 09:27:31;;;;;;;27.65;24.85;;;34.20;59.60;;;;;;1808759;78;21110;-83
2022/04/14 09:30:05;;;;;;;25.30;22.65;;;34.10;59.50;;;;;;1789582;79;21220;-83
2022/04/14 09:32:39;;;;;;;24.57;22.10;;;34.00;60.00;;;;;;1786740;79;21223;-81
2022/04/14 09:35:12;;;;;;;24.27;21.65;;;33.90;59.90;;;;;;1792014;77;21225;-82
2022/04/14 09:37:43;;;;;;;24.90;22.32;;;33.80;60.20;;;;;;1791857;79;21629;-83
2022/04/14 09:40:15;;;;;;;28.67;22.65;;;33.70;60.20;;;;;;1757189;80;21131;-82
2022/04/14 09:42:51;;;;;;;23.87;21.40;;;33.70;60.50;;;;;;1862339;75;21264;-84
2022/04/14 09:45:23;;;;;;;24.80;22.27;;;33.60;61.80;;;;;;1889924;75;21535;-83
2022/04/14 09:47:57;;;;;;;24.95;22.27;;;33.60;60.60;;;;;;1893926;75;21119;-84
2022/04/14 09:50:39;;;;;;;27.65;23.32;;;33.60;60.80;;;;;;1893184;75;21639;-82
2022/04/14 09:53:08;;;;;;;24.87;22.37;;;33.50;59.90;;;;;;1890339;75;21090;-82
2022/04/14 09:55:43;;;;;;;26.55;22.73;;;33.50;59.70;;;;;;1894568;75;21195;-82
2022/04/14 09:58:17;;;;;;;26.23;21.35;;;33.50;59.50;;;;;;1891075;75;21158;-81
2022/04/14 10:00:51;;;;;;;26.20;21.05;;;33.50;59.10;;;;;;1909255;75;21056;-82
2022/04/14 10:03:24;;;;;;;27.02;20.60;;;33.40;57.70;;;;;;1898771;75;21658;-83
2022/04/14 10:05:57;;;;;;;22.65;20.12;;;33.40;55.20;;;;;;1898825;75;21139;-83
2022/04/14 10:08:29;;;;;;;23.60;20.32;;;33.40;53.80;;;;;;1902419;75;21156;-82
2022/04/14 10:11:02;;;;;;;23.27;20.15;;;33.30;53.80;;;;;;1891000;74;21098;-82
2022/04/14 10:13:36;;;;;;;25.05;19.30;;;33.30;54.40;;;;;;1912578;75;21224;-83
2022/04/14 10:16:13;;;;;;;24.23;20.95;;;33.20;54.50;;;;;;1912763;75;21110;-81
2022/04/14 10:18:45;;;;;;;25.40;20.90;;;33.20;53.90;;;;;;1893498;75;21139;-83
2022/04/14 10:21:19;;;;;;;28.65;20.88;;;33.10;54.40;;;;;;1895674;75;21158;-83
2022/04/14 10:23:50;;;;;;;26.48;21.00;;;33.10;55.10;;;;;;1890117;75;21165;-83
2022/04/14 10:26:23;;;;;;;24.12;20.30;;;33.10;55.40;;;;;;1895084;75;21118;-84
2022/04/14 10:28:55;;;;;;;27.22;21.82;;;33.10;54.60;;;;;;1894273;75;21658;-83
2022/04/14 10:31:28;;;;;;;26.35;22.17;;;33.00;55.10;;;;;;1897335;75;21187;-82
2022/04/14 10:34:04;;;;;;;23.92;21.45;;;33.00;55.60;;;;;;1909796;75;21104;-82
2022/04/14 10:36:37;;;;;;;24.35;21.80;;;32.90;55.60;;;;;;1904588;75;21080;-82
2022/04/14 10:39:09;;;;;;;27.87;22.67;;;32.90;55.60;;;;;;1905537;75;21069;-82
2022/04/14 10:41:43;;;;;;;29.50;23.27;;;32.90;56.20;;;;;;1914043;75;21142;-81
2022/04/14 10:44:19;;;;;;;25.20;22.37;;;32.90;56.20;;;;;;1914043;75;21104;-82
2022/04/14 10:46:51;;;;;;;26.68;23.77;;;32.90;56.50;;;;;;1896382;75;21129;-83
2022/04/14 10:49:26;;;;;;;26.95;22.98;;;32.80;56.60;;;;;;1896583;75;21052;-83
2022/04/14 10:52:03;;;;;;;30.32;24.00;;;32.80;57.20;;;;;;1894835;75;21136;-82
2022/04/14 10:54:37;;;;;;;25.82;22.90;;;32.80;56.80;;;;;;1898476;75;21916;-83
2022/04/14 10:57:13;;;;;;;24.98;22.10;;;32.80;56.80;;;;;;1897309;75;21060;-83
2022/04/14 10:59:50;;;;;;;30.30;23.22;;;32.70;56.90;;;;;;1878423;75;21147;-82
2022/04/14 11:02:22;;;;;;;26.82;23.92;;;32.70;57.70;;;;;;1896591;75;21076;-83
2022/04/14 11:04:54;;;;;;;28.10;24.45;;;32.70;57.70;;;;;;1814361;79;21150;-83
2022/04/14 11:07:27;;;;;;;28.02;24.37;;;32.70;57.80;;;;;;1896459;75;21081;-82
2022/04/14 11:09:59;;;;;;;29.98;23.60;;;32.70;58.20;;;;;;1903944;74;21086;-82
2022/04/14 11:12:33;;;;;;;28.02;23.90;;;32.60;58.20;;;;;;1894596;75;21186;-83
2022/04/14 11:15:06;;;;;;;49.20;41.68;;;32.60;58.40;;;;;;1881814;75;21092;-82
2022/04/14 11:18:02;;;;;;;230.95;189.75;;;32.60;57.30;;;;;;1901388;75;21408;-80
2022/04/14 11:20:19;;;;;;;567.17;470.23;;;32.50;56.80;;;;;;1898188;75;21120;-81
2022/04/14 11:22:52;;;;;;;86.47;65.85;;;32.40;56.60;;;;;;1896617;75;21093;-82
2022/04/14 11:25:29;;;;;;;65.72;56.90;;;32.30;56.70;;;;;;1881062;75;21146;-81
2022/04/14 11:28:06;;;;;;;52.20;43.08;;;32.30;56.40;;;;;;1891813;75;21164;-82
2022/04/14 11:30:39;;;;;;;122.62;111.08;;;32.30;56.80;;;;;;1890379;75;21218;-82
2022/04/14 11:33:16;;;;;;;158.18;142.53;;;32.20;57.00;;;;;;1897362;75;21081;-82
2022/04/14 11:35:47;;;;;;;189.75;172.32;;;32.30;56.90;;;;;;1879632;75;21178;-82
2022/04/14 11:38:24;;;;;;;250.62;220.17;;;32.30;56.80;;;;;;1900505;75;21135;-82
2022/04/14 11:40:56;;;;;;;1299.75;763.52;;;32.30;56.70;;;;;;1895413;75;21529;-82
2022/04/14 11:43:32;;;;;;;719.30;597.67;;;32.30;57.00;;;;;;1883847;75;21124;-83
2022/04/14 11:46:10;;;;;;;182.43;158.87;;;32.30;57.30;;;;;;1894078;75;21747;-81
2022/04/14 11:48:41;;;;;;;547.92;467.27;;;32.30;57.00;;;;;;1847972;75;21164;-82
2022/04/14 11:51:13;;;;;;;92.10;79.85;;;32.30;57.20;;;;;;1887638;75;21164;-82
2022/04/14 11:53:45;;;;;;;116.77;104.40;;;32.40;57.10;;;;;;1894352;75;21077;-83
2022/04/14 11:56:19;;;;;;;77.30;63.00;;;32.40;57.20;;;;;;1890308;74;21124;-82
2022/04/14 11:58:50;;;;;;;40.15;31.42;;;32.40;57.20;;;;;;1902575;74;21131;-81
2022/04/14 12:01:22;;;;;;;27.50;24.30;;;32.40;57.20;;;;;;1905071;74;21115;-83
2022/04/14 12:03:56;;;;;;;34.60;25.85;;;32.40;56.80;;;;;;1902286;74;21135;-83
2022/04/14 12:06:27;;;;;;;29.30;26.15;;;32.40;56.80;;;;;;1839841;76;21142;-82
2022/04/14 12:08:59;;;;;;;29.52;23.77;;;32.40;57.30;;;;;;1897344;75;21114;-83
2022/04/14 12:11:33;;;;;;;32.08;25.15;;;32.40;57.20;;;;;;1892380;75;21224;-82
2022/04/14 12:14:04;;;;;;;26.65;23.83;;;32.30;57.90;;;;;;1898609;75;21068;-83
2022/04/14 12:16:35;;;;;;;28.17;22.67;;;32.30;57.10;;;;;;1898808;75;21555;-82
2022/04/14 12:19:08;;;;;;;25.70;22.40;;;32.30;57.40;;;;;;1899643;74;21211;-83
2022/04/14 12:21:43;;;;;;;34.92;25.82;;;32.30;57.50;;;;;;1896865;75;21127;-82
2022/04/14 12:24:13;;;;;;;27.58;22.75;;;32.30;57.40;;;;;;1901830;73;21198;-82
2022/04/14 12:26:45;;;;;;;28.30;22.75;;;32.30;57.60;;;;;;1899237;73;21176;-83
2022/04/14 12:29:17;;;;;;;27.58;23.65;;;32.20;57.50;;;;;;1905986;73;21131;-82
2022/04/14 12:31:48;;;;;;;30.25;24.30;;;32.20;57.70;;;;;;1846696;76;21214;-83
2022/04/14 12:34:19;;;;;;;30.68;23.57;;;32.20;57.70;;;;;;1893319;73;21176;-82
2022/04/14 12:36:57;;;;;;;27.50;23.55;;;32.20;57.80;;;;;;1898247;75;21730;-83
2022/04/14 12:39:28;;;;;;;29.18;24.37;;;32.20;58.00;;;;;;1896158;75;21653;-82
2022/04/14 12:42:00;;;;;;;31.33;25.40;;;32.20;58.10;;;;;;1890599;75;21249;-83
2022/04/14 12:44:35;;;;;;;33.78;30.02;;;32.20;58.30;;;;;;1860978;76;21155;-82
2022/04/14 12:47:06;;;;;;;33.48;26.12;;;32.20;58.50;;;;;;1895527;74;21261;-82
2022/04/14 12:49:37;;;;;;;33.05;25.80;;;32.20;58.60;;;;;;1896734;75;21198;-82
2022/04/14 12:52:09;;;;;;;29.25;24.52;;;32.20;58.50;;;;;;1837243;77;21159;-82
2022/04/14 12:54:42;;;;;;;30.60;24.30;;;32.20;58.20;;;;;;1894911;75;21144;-82